sensor_id;sensor_type;location;lat;lon;timestamp;P1;durP1;ratioP1;P2;durP2;ratioP2
79204;SDS011;68632;47.512;19.104;2023-06-22T00:00:11;15.65;;;9.55;;
79204;SDS011;68632;47.512;19.104;2023-06-22T00:01:14;14.13;;;9.45;;
79204;SDS011;68632;47.512;19.104;2023-06-22T00:02:16;17.55;;;9.27;;
79204;SDS011;68632;47.512;19.104;2023-06-22T00:03:19;18.33;;;9.85;;
79204;SDS011;68632;47.512;19.104;2023-06-22T00:04:22;15.23;;;10.18;;
79204;SDS011;68632;47.512;19.104;2023-06-22T00:05:25;18.00;;;9.90;;
79204;SDS011;68632;47.512;19.104;2023-06-22T00:06:27;17.52;;;10.35;;
79204;SDS011;68632;47.512;19.104;2023-06-22T00:07:29;13.15;;;9.68;;
79204;SDS011;68632;47.512;19.104;2023-06-22T00:08:31;15.27;;;9.77;;
79204;SDS011;68632;47.512;19.104;2023-06-22T00:09:33;14.18;;;10.38;;
79204;SDS011;68632;47.512;19.104;2023-06-22T00:10:36;23.60;;;10.18;;
79204;SDS011;68632;47.512;19.104;2023-06-22T00:11:38;16.02;;;9.77;;
79204;SDS011;68632;47.512;19.104;2023-06-22T00:12:40;16.42;;;9.75;;
79204;SDS011;68632;47.512;19.104;2023-06-22T00:13:42;13.85;;;9.60;;
79204;SDS011;68632;47.512;19.104;2023-06-22T00:14:44;16.25;;;11.07;;
79204;SDS011;68632;47.512;19.104;2023-06-22T00:15:47;17.40;;;11.10;;
79204;SDS011;68632;47.512;19.104;2023-06-22T00:16:49;15.00;;;10.98;;
79204;SDS011;68632;47.512;19.104;2023-06-22T00:17:59;18.65;;;11.40;;
79204;SDS011;68632;47.512;19.104;2023-06-22T00:19:01;17.50;;;10.23;;
79204;SDS011;68632;47.512;19.104;2023-06-22T00:20:05;18.42;;;10.48;;
79204;SDS011;68632;47.512;19.104;2023-06-22T00:21:07;15.48;;;10.40;;
79204;SDS011;68632;47.512;19.104;2023-06-22T00:22:10;16.45;;;10.70;;
79204;SDS011;68632;47.512;19.104;2023-06-22T00:23:12;17.38;;;10.23;;
79204;SDS011;68632;47.512;19.104;2023-06-22T00:24:19;19.38;;;11.50;;
79204;SDS011;68632;47.512;19.104;2023-06-22T00:25:21;15.43;;;10.15;;
79204;SDS011;68632;47.512;19.104;2023-06-22T00:26:24;15.43;;;9.07;;
79204;SDS011;68632;47.512;19.104;2023-06-22T00:27:26;13.55;;;8.85;;
79204;SDS011;68632;47.512;19.104;2023-06-22T00:28:28;13.18;;;8.73;;
79204;SDS011;68632;47.512;19.104;2023-06-22T00:29:31;14.85;;;8.10;;
79204;SDS011;68632;47.512;19.104;2023-06-22T00:30:33;17.45;;;9.05;;
79204;SDS011;68632;47.512;19.104;2023-06-22T00:31:35;13.77;;;9.25;;
79204;SDS011;68632;47.512;19.104;2023-06-22T00:32:38;18.25;;;9.35;;
79204;SDS011;68632;47.512;19.104;2023-06-22T00:33:40;18.52;;;10.75;;
79204;SDS011;68632;47.512;19.104;2023-06-22T00:34:42;15.75;;;11.05;;
79204;SDS011;68632;47.512;19.104;2023-06-22T00:35:44;13.07;;;8.65;;
79204;SDS011;68632;47.512;19.104;2023-06-22T00:36:46;21.27;;;9.52;;
79204;SDS011;68632;47.512;19.104;2023-06-22T00:37:49;19.17;;;9.82;;
79204;SDS011;68632;47.512;19.104;2023-06-22T00:38:51;15.38;;;9.35;;
79204;SDS011;68632;47.512;19.104;2023-06-22T00:39:53;14.15;;;9.68;;
79204;SDS011;68632;47.512;19.104;2023-06-22T00:40:56;16.50;;;9.73;;
79204;SDS011;68632;47.512;19.104;2023-06-22T00:41:58;13.55;;;8.98;;
79204;SDS011;68632;47.512;19.104;2023-06-22T00:43:01;11.27;;;8.38;;
79204;SDS011;68632;47.512;19.104;2023-06-22T00:44:03;13.48;;;9.50;;
79204;SDS011;68632;47.512;19.104;2023-06-22T00:45:06;11.98;;;8.48;;
79204;SDS011;68632;47.512;19.104;2023-06-22T00:46:09;17.77;;;9.75;;
79204;SDS011;68632;47.512;19.104;2023-06-22T00:47:13;15.18;;;10.20;;
79204;SDS011;68632;47.512;19.104;2023-06-22T00:48:17;27.63;;;9.60;;
79204;SDS011;68632;47.512;19.104;2023-06-22T00:49:19;15.30;;;10.07;;
79204;SDS011;68632;47.512;19.104;2023-06-22T00:50:23;11.57;;;8.30;;
79204;SDS011;68632;47.512;19.104;2023-06-22T00:51:26;16.08;;;8.95;;
79204;SDS011;68632;47.512;19.104;2023-06-22T00:52:28;13.93;;;9.80;;
79204;SDS011;68632;47.512;19.104;2023-06-22T00:53:32;14.50;;;10.10;;
79204;SDS011;68632;47.512;19.104;2023-06-22T00:54:37;17.95;;;10.90;;
79204;SDS011;68632;47.512;19.104;2023-06-22T00:55:42;17.77;;;9.95;;
79204;SDS011;68632;47.512;19.104;2023-06-22T00:56:47;13.45;;;9.13;;
79204;SDS011;68632;47.512;19.104;2023-06-22T00:57:49;13.55;;;9.23;;
79204;SDS011;68632;47.512;19.104;2023-06-22T00:58:51;18.40;;;9.73;;
79204;SDS011;68632;47.512;19.104;2023-06-22T00:59:55;16.65;;;8.50;;
79204;SDS011;68632;47.512;19.104;2023-06-22T01:00:57;12.63;;;9.82;;
79204;SDS011;68632;47.512;19.104;2023-06-22T01:01:59;13.88;;;10.05;;
79204;SDS011;68632;47.512;19.104;2023-06-22T01:03:02;27.80;;;10.52;;
79204;SDS011;68632;47.512;19.104;2023-06-22T01:04:05;13.65;;;9.25;;
79204;SDS011;68632;47.512;19.104;2023-06-22T01:05:08;17.75;;;9.88;;
79204;SDS011;68632;47.512;19.104;2023-06-22T01:06:13;13.90;;;9.02;;
79204;SDS011;68632;47.512;19.104;2023-06-22T01:08:29;15.23;;;9.23;;
79204;SDS011;68632;47.512;19.104;2023-06-22T01:09:37;15.05;;;9.55;;
79204;SDS011;68632;47.512;19.104;2023-06-22T01:11:55;17.27;;;9.27;;
79204;SDS011;68632;47.512;19.104;2023-06-22T01:13:03;16.80;;;9.20;;
79204;SDS011;68632;47.512;19.104;2023-06-22T01:15:28;13.35;;;9.63;;
79204;SDS011;68632;47.512;19.104;2023-06-22T01:17:36;15.02;;;9.70;;
79204;SDS011;68632;47.512;19.104;2023-06-22T01:18:42;14.20;;;9.77;;
79204;SDS011;68632;47.512;19.104;2023-06-22T01:19:46;14.80;;;8.95;;
79204;SDS011;68632;47.512;19.104;2023-06-22T01:20:56;16.20;;;9.43;;
79204;SDS011;68632;47.512;19.104;2023-06-22T01:21:59;19.80;;;10.02;;
79204;SDS011;68632;47.512;19.104;2023-06-22T01:23:17;17.20;;;9.38;;
79204;SDS011;68632;47.512;19.104;2023-06-22T01:26:17;15.63;;;10.07;;
79204;SDS011;68632;47.512;19.104;2023-06-22T01:27:36;15.50;;;9.88;;
79204;SDS011;68632;47.512;19.104;2023-06-22T01:28:50;13.43;;;9.73;;
79204;SDS011;68632;47.512;19.104;2023-06-22T01:29:55;13.90;;;9.10;;
79204;SDS011;68632;47.512;19.104;2023-06-22T01:31:08;13.95;;;8.70;;
79204;SDS011;68632;47.512;19.104;2023-06-22T01:32:11;14.18;;;8.93;;
79204;SDS011;68632;47.512;19.104;2023-06-22T01:33:14;16.25;;;9.00;;
79204;SDS011;68632;47.512;19.104;2023-06-22T01:34:17;16.98;;;9.75;;
79204;SDS011;68632;47.512;19.104;2023-06-22T01:35:19;16.25;;;9.73;;
79204;SDS011;68632;47.512;19.104;2023-06-22T01:36:22;15.90;;;9.95;;
79204;SDS011;68632;47.512;19.104;2023-06-22T01:37:25;14.15;;;9.68;;
79204;SDS011;68632;47.512;19.104;2023-06-22T01:38:31;15.43;;;9.93;;
79204;SDS011;68632;47.512;19.104;2023-06-22T01:39:34;28.00;;;10.30;;
79204;SDS011;68632;47.512;19.104;2023-06-22T01:40:37;14.40;;;9.98;;
79204;SDS011;68632;47.512;19.104;2023-06-22T01:41:39;16.65;;;10.68;;
79204;SDS011;68632;47.512;19.104;2023-06-22T01:42:43;12.82;;;10.30;;
79204;SDS011;68632;47.512;19.104;2023-06-22T01:43:46;14.02;;;9.85;;
79204;SDS011;68632;47.512;19.104;2023-06-22T01:44:49;19.20;;;11.75;;
79204;SDS011;68632;47.512;19.104;2023-06-22T01:45:52;18.83;;;10.38;;
79204;SDS011;68632;47.512;19.104;2023-06-22T01:46:55;14.07;;;10.07;;
79204;SDS011;68632;47.512;19.104;2023-06-22T01:47:58;15.88;;;10.02;;
79204;SDS011;68632;47.512;19.104;2023-06-22T01:49:01;14.68;;;10.27;;
79204;SDS011;68632;47.512;19.104;2023-06-22T01:50:04;15.73;;;10.52;;
79204;SDS011;68632;47.512;19.104;2023-06-22T01:51:07;19.80;;;9.85;;
79204;SDS011;68632;47.512;19.104;2023-06-22T01:52:09;14.85;;;9.73;;
79204;SDS011;68632;47.512;19.104;2023-06-22T01:53:11;20.02;;;10.75;;
79204;SDS011;68632;47.512;19.104;2023-06-22T01:54:14;14.73;;;10.25;;
79204;SDS011;68632;47.512;19.104;2023-06-22T01:55:16;15.77;;;8.98;;
79204;SDS011;68632;47.512;19.104;2023-06-22T01:56:18;15.40;;;10.05;;
79204;SDS011;68632;47.512;19.104;2023-06-22T01:57:20;14.60;;;10.27;;
79204;SDS011;68632;47.512;19.104;2023-06-22T01:58:26;16.55;;;10.50;;
79204;SDS011;68632;47.512;19.104;2023-06-22T01:59:34;16.42;;;10.82;;
79204;SDS011;68632;47.512;19.104;2023-06-22T02:00:38;13.68;;;9.95;;
79204;SDS011;68632;47.512;19.104;2023-06-22T02:01:43;12.15;;;9.60;;
79204;SDS011;68632;47.512;19.104;2023-06-22T02:02:57;14.43;;;8.95;;
79204;SDS011;68632;47.512;19.104;2023-06-22T02:04:03;15.57;;;9.80;;
79204;SDS011;68632;47.512;19.104;2023-06-22T02:05:11;15.07;;;9.77;;
79204;SDS011;68632;47.512;19.104;2023-06-22T02:06:18;15.00;;;9.43;;
79204;SDS011;68632;47.512;19.104;2023-06-22T02:07:27;21.65;;;9.73;;
79204;SDS011;68632;47.512;19.104;2023-06-22T02:08:39;14.23;;;9.02;;
79204;SDS011;68632;47.512;19.104;2023-06-22T02:09:44;15.98;;;10.95;;
79204;SDS011;68632;47.512;19.104;2023-06-22T02:10:48;13.63;;;9.65;;
79204;SDS011;68632;47.512;19.104;2023-06-22T02:11:51;15.23;;;9.38;;
79204;SDS011;68632;47.512;19.104;2023-06-22T02:12:57;16.90;;;9.73;;
79204;SDS011;68632;47.512;19.104;2023-06-22T02:13:59;12.32;;;8.77;;
79204;SDS011;68632;47.512;19.104;2023-06-22T02:15:02;13.35;;;9.77;;
79204;SDS011;68632;47.512;19.104;2023-06-22T02:16:04;13.32;;;9.10;;
79204;SDS011;68632;47.512;19.104;2023-06-22T02:17:07;14.80;;;9.90;;
79204;SDS011;68632;47.512;19.104;2023-06-22T02:18:10;15.38;;;10.13;;
79204;SDS011;68632;47.512;19.104;2023-06-22T02:19:12;16.27;;;9.70;;
79204;SDS011;68632;47.512;19.104;2023-06-22T02:20:20;14.63;;;9.57;;
79204;SDS011;68632;47.512;19.104;2023-06-22T02:21:23;16.02;;;9.85;;
79204;SDS011;68632;47.512;19.104;2023-06-22T02:22:25;15.68;;;9.95;;
79204;SDS011;68632;47.512;19.104;2023-06-22T02:23:27;17.73;;;10.85;;
79204;SDS011;68632;47.512;19.104;2023-06-22T02:24:30;18.92;;;10.20;;
79204;SDS011;68632;47.512;19.104;2023-06-22T02:25:34;14.38;;;10.35;;
79204;SDS011;68632;47.512;19.104;2023-06-22T02:26:36;15.40;;;10.57;;
79204;SDS011;68632;47.512;19.104;2023-06-22T02:27:40;13.88;;;10.10;;
79204;SDS011;68632;47.512;19.104;2023-06-22T02:28:42;18.48;;;10.98;;
79204;SDS011;68632;47.512;19.104;2023-06-22T02:29:44;18.73;;;11.05;;
79204;SDS011;68632;47.512;19.104;2023-06-22T02:30:47;17.75;;;10.43;;
79204;SDS011;68632;47.512;19.104;2023-06-22T02:31:49;17.35;;;10.27;;
79204;SDS011;68632;47.512;19.104;2023-06-22T02:32:51;17.63;;;10.75;;
79204;SDS011;68632;47.512;19.104;2023-06-22T02:34:00;19.85;;;10.70;;
79204;SDS011;68632;47.512;19.104;2023-06-22T02:35:02;15.15;;;9.65;;
79204;SDS011;68632;47.512;19.104;2023-06-22T02:36:09;17.42;;;10.27;;
79204;SDS011;68632;47.512;19.104;2023-06-22T02:37:15;24.95;;;11.65;;
79204;SDS011;68632;47.512;19.104;2023-06-22T02:38:17;19.45;;;11.27;;
79204;SDS011;68632;47.512;19.104;2023-06-22T02:39:20;19.15;;;10.77;;
79204;SDS011;68632;47.512;19.104;2023-06-22T02:40:24;20.42;;;9.85;;
79204;SDS011;68632;47.512;19.104;2023-06-22T02:41:27;17.77;;;10.02;;
79204;SDS011;68632;47.512;19.104;2023-06-22T02:42:29;15.38;;;10.75;;
79204;SDS011;68632;47.512;19.104;2023-06-22T02:43:31;14.65;;;10.63;;
79204;SDS011;68632;47.512;19.104;2023-06-22T02:44:33;18.40;;;10.50;;
79204;SDS011;68632;47.512;19.104;2023-06-22T02:45:35;20.75;;;10.23;;
79204;SDS011;68632;47.512;19.104;2023-06-22T02:46:38;16.73;;;10.10;;
79204;SDS011;68632;47.512;19.104;2023-06-22T02:47:40;21.08;;;11.38;;
79204;SDS011;68632;47.512;19.104;2023-06-22T02:48:42;15.07;;;10.75;;
79204;SDS011;68632;47.512;19.104;2023-06-22T02:49:47;17.23;;;10.55;;
79204;SDS011;68632;47.512;19.104;2023-06-22T02:50:50;16.10;;;10.43;;
79204;SDS011;68632;47.512;19.104;2023-06-22T02:51:52;15.35;;;10.60;;
79204;SDS011;68632;47.512;19.104;2023-06-22T02:52:55;16.52;;;10.05;;
79204;SDS011;68632;47.512;19.104;2023-06-22T02:53:57;17.65;;;11.15;;
79204;SDS011;68632;47.512;19.104;2023-06-22T02:54:59;17.00;;;11.15;;
79204;SDS011;68632;47.512;19.104;2023-06-22T02:56:02;12.23;;;10.05;;
79204;SDS011;68632;47.512;19.104;2023-06-22T02:57:07;15.88;;;10.80;;
79204;SDS011;68632;47.512;19.104;2023-06-22T02:58:15;16.88;;;10.57;;
79204;SDS011;68632;47.512;19.104;2023-06-22T02:59:18;19.77;;;12.15;;
79204;SDS011;68632;47.512;19.104;2023-06-22T03:00:25;16.52;;;10.70;;
79204;SDS011;68632;47.512;19.104;2023-06-22T03:01:32;20.85;;;11.98;;
79204;SDS011;68632;47.512;19.104;2023-06-22T03:02:42;14.25;;;10.43;;
79204;SDS011;68632;47.512;19.104;2023-06-22T03:03:45;18.75;;;11.68;;
79204;SDS011;68632;47.512;19.104;2023-06-22T03:04:48;16.52;;;11.48;;
79204;SDS011;68632;47.512;19.104;2023-06-22T03:05:51;14.75;;;10.77;;
79204;SDS011;68632;47.512;19.104;2023-06-22T03:06:54;22.27;;;11.65;;
79204;SDS011;68632;47.512;19.104;2023-06-22T03:07:57;20.00;;;12.80;;
79204;SDS011;68632;47.512;19.104;2023-06-22T03:09:00;19.50;;;11.25;;
79204;SDS011;68632;47.512;19.104;2023-06-22T03:10:05;18.88;;;12.23;;
79204;SDS011;68632;47.512;19.104;2023-06-22T03:11:08;18.30;;;11.63;;
79204;SDS011;68632;47.512;19.104;2023-06-22T03:12:11;19.35;;;11.82;;
79204;SDS011;68632;47.512;19.104;2023-06-22T03:13:13;20.38;;;11.65;;
79204;SDS011;68632;47.512;19.104;2023-06-22T03:14:15;19.85;;;11.60;;
79204;SDS011;68632;47.512;19.104;2023-06-22T03:15:17;17.20;;;11.00;;
79204;SDS011;68632;47.512;19.104;2023-06-22T03:16:21;17.95;;;10.82;;
79204;SDS011;68632;47.512;19.104;2023-06-22T03:17:24;24.02;;;10.75;;
79204;SDS011;68632;47.512;19.104;2023-06-22T03:18:26;19.88;;;10.85;;
79204;SDS011;68632;47.512;19.104;2023-06-22T03:19:29;17.48;;;11.13;;
79204;SDS011;68632;47.512;19.104;2023-06-22T03:20:33;16.15;;;11.05;;
79204;SDS011;68632;47.512;19.104;2023-06-22T03:21:36;18.42;;;10.98;;
79204;SDS011;68632;47.512;19.104;2023-06-22T03:22:41;18.63;;;11.00;;
79204;SDS011;68632;47.512;19.104;2023-06-22T03:23:44;15.35;;;10.93;;
79204;SDS011;68632;47.512;19.104;2023-06-22T03:24:46;17.42;;;11.13;;
79204;SDS011;68632;47.512;19.104;2023-06-22T03:25:48;17.80;;;11.20;;
79204;SDS011;68632;47.512;19.104;2023-06-22T03:26:50;13.20;;;10.32;;
79204;SDS011;68632;47.512;19.104;2023-06-22T03:27:52;17.58;;;10.15;;
79204;SDS011;68632;47.512;19.104;2023-06-22T03:28:56;24.48;;;11.65;;
79204;SDS011;68632;47.512;19.104;2023-06-22T03:29:59;16.63;;;10.98;;
79204;SDS011;68632;47.512;19.104;2023-06-22T03:31:01;20.23;;;11.00;;
79204;SDS011;68632;47.512;19.104;2023-06-22T03:32:03;17.33;;;10.75;;
79204;SDS011;68632;47.512;19.104;2023-06-22T03:33:08;18.95;;;11.90;;
79204;SDS011;68632;47.512;19.104;2023-06-22T03:34:10;17.45;;;11.05;;
79204;SDS011;68632;47.512;19.104;2023-06-22T03:35:12;18.73;;;11.30;;
79204;SDS011;68632;47.512;19.104;2023-06-22T03:36:16;16.10;;;11.48;;
79204;SDS011;68632;47.512;19.104;2023-06-22T03:37:21;17.65;;;11.27;;
79204;SDS011;68632;47.512;19.104;2023-06-22T03:38:24;18.80;;;12.00;;
79204;SDS011;68632;47.512;19.104;2023-06-22T03:39:26;17.05;;;11.25;;
79204;SDS011;68632;47.512;19.104;2023-06-22T03:40:28;23.38;;;11.68;;
79204;SDS011;68632;47.512;19.104;2023-06-22T03:41:31;17.10;;;11.68;;
79204;SDS011;68632;47.512;19.104;2023-06-22T03:42:34;18.98;;;11.38;;
79204;SDS011;68632;47.512;19.104;2023-06-22T03:43:37;17.70;;;12.20;;
79204;SDS011;68632;47.512;19.104;2023-06-22T03:44:39;20.25;;;12.02;;
79204;SDS011;68632;47.512;19.104;2023-06-22T03:45:41;21.77;;;12.32;;
79204;SDS011;68632;47.512;19.104;2023-06-22T03:46:44;19.73;;;12.60;;
79204;SDS011;68632;47.512;19.104;2023-06-22T03:47:46;20.83;;;12.75;;
79204;SDS011;68632;47.512;19.104;2023-06-22T03:48:48;25.15;;;12.23;;
79204;SDS011;68632;47.512;19.104;2023-06-22T03:49:50;19.15;;;12.52;;
79204;SDS011;68632;47.512;19.104;2023-06-22T03:50:56;17.17;;;12.40;;
79204;SDS011;68632;47.512;19.104;2023-06-22T03:52:01;17.90;;;11.88;;
79204;SDS011;68632;47.512;19.104;2023-06-22T03:53:04;20.23;;;13.05;;
79204;SDS011;68632;47.512;19.104;2023-06-22T03:54:06;19.13;;;13.52;;
79204;SDS011;68632;47.512;19.104;2023-06-22T03:55:08;18.08;;;12.90;;
79204;SDS011;68632;47.512;19.104;2023-06-22T03:56:11;21.45;;;14.30;;
79204;SDS011;68632;47.512;19.104;2023-06-22T03:57:13;20.13;;;13.45;;
79204;SDS011;68632;47.512;19.104;2023-06-22T03:58:16;20.45;;;13.68;;
79204;SDS011;68632;47.512;19.104;2023-06-22T03:59:20;16.95;;;13.75;;
79204;SDS011;68632;47.512;19.104;2023-06-22T04:00:23;20.63;;;13.10;;
79204;SDS011;68632;47.512;19.104;2023-06-22T04:01:25;26.65;;;13.68;;
79204;SDS011;68632;47.512;19.104;2023-06-22T04:02:27;19.73;;;12.32;;
79204;SDS011;68632;47.512;19.104;2023-06-22T04:03:30;14.45;;;11.70;;
79204;SDS011;68632;47.512;19.104;2023-06-22T04:04:32;22.80;;;11.77;;
79204;SDS011;68632;47.512;19.104;2023-06-22T04:05:35;21.40;;;13.10;;
79204;SDS011;68632;47.512;19.104;2023-06-22T04:06:38;21.80;;;12.55;;
79204;SDS011;68632;47.512;19.104;2023-06-22T04:07:40;19.60;;;13.73;;
79204;SDS011;68632;47.512;19.104;2023-06-22T04:08:44;17.88;;;13.02;;
79204;SDS011;68632;47.512;19.104;2023-06-22T04:09:50;20.05;;;14.20;;
79204;SDS011;68632;47.512;19.104;2023-06-22T04:10:52;19.95;;;11.68;;
79204;SDS011;68632;47.512;19.104;2023-06-22T04:11:54;22.05;;;13.57;;
79204;SDS011;68632;47.512;19.104;2023-06-22T04:12:56;18.85;;;11.82;;
79204;SDS011;68632;47.512;19.104;2023-06-22T04:13:59;20.60;;;13.18;;
79204;SDS011;68632;47.512;19.104;2023-06-22T04:15:01;24.95;;;12.63;;
79204;SDS011;68632;47.512;19.104;2023-06-22T04:16:03;20.23;;;13.40;;
79204;SDS011;68632;47.512;19.104;2023-06-22T04:17:06;20.52;;;12.98;;
79204;SDS011;68632;47.512;19.104;2023-06-22T04:18:08;21.58;;;12.73;;
79204;SDS011;68632;47.512;19.104;2023-06-22T04:19:10;19.00;;;13.75;;
79204;SDS011;68632;47.512;19.104;2023-06-22T04:20:18;23.75;;;13.20;;
79204;SDS011;68632;47.512;19.104;2023-06-22T04:21:20;24.52;;;13.30;;
79204;SDS011;68632;47.512;19.104;2023-06-22T04:22:22;21.00;;;13.85;;
79204;SDS011;68632;47.512;19.104;2023-06-22T04:23:24;21.23;;;13.50;;
79204;SDS011;68632;47.512;19.104;2023-06-22T04:24:26;24.65;;;12.98;;
79204;SDS011;68632;47.512;19.104;2023-06-22T04:25:28;23.50;;;13.18;;
79204;SDS011;68632;47.512;19.104;2023-06-22T04:26:31;20.42;;;12.90;;
79204;SDS011;68632;47.512;19.104;2023-06-22T04:27:38;23.15;;;13.25;;
79204;SDS011;68632;47.512;19.104;2023-06-22T04:28:42;22.05;;;12.15;;
79204;SDS011;68632;47.512;19.104;2023-06-22T04:29:44;17.80;;;12.32;;
79204;SDS011;68632;47.512;19.104;2023-06-22T04:30:50;19.63;;;13.43;;
79204;SDS011;68632;47.512;19.104;2023-06-22T04:31:52;17.75;;;13.35;;
79204;SDS011;68632;47.512;19.104;2023-06-22T04:32:55;24.02;;;13.23;;
79204;SDS011;68632;47.512;19.104;2023-06-22T04:34:00;17.48;;;12.73;;
79204;SDS011;68632;47.512;19.104;2023-06-22T04:35:08;21.67;;;11.90;;
79204;SDS011;68632;47.512;19.104;2023-06-22T04:36:10;19.60;;;11.65;;
79204;SDS011;68632;47.512;19.104;2023-06-22T04:37:15;20.70;;;12.00;;
79204;SDS011;68632;47.512;19.104;2023-06-22T04:38:17;20.83;;;11.95;;
79204;SDS011;68632;47.512;19.104;2023-06-22T04:39:19;19.65;;;12.70;;
79204;SDS011;68632;47.512;19.104;2023-06-22T04:40:22;23.17;;;13.25;;
79204;SDS011;68632;47.512;19.104;2023-06-22T04:41:25;21.65;;;13.20;;
79204;SDS011;68632;47.512;19.104;2023-06-22T04:42:27;21.70;;;12.85;;
79204;SDS011;68632;47.512;19.104;2023-06-22T04:43:29;19.83;;;12.13;;
79204;SDS011;68632;47.512;19.104;2023-06-22T04:44:32;25.95;;;13.45;;
79204;SDS011;68632;47.512;19.104;2023-06-22T04:45:34;19.50;;;12.95;;
79204;SDS011;68632;47.512;19.104;2023-06-22T04:46:39;20.70;;;11.85;;
79204;SDS011;68632;47.512;19.104;2023-06-22T04:47:42;18.42;;;11.82;;
79204;SDS011;68632;47.512;19.104;2023-06-22T04:48:44;20.88;;;13.43;;
79204;SDS011;68632;47.512;19.104;2023-06-22T04:49:46;21.77;;;12.85;;
79204;SDS011;68632;47.512;19.104;2023-06-22T04:50:49;21.73;;;13.20;;
79204;SDS011;68632;47.512;19.104;2023-06-22T04:51:51;21.77;;;13.18;;
79204;SDS011;68632;47.512;19.104;2023-06-22T04:52:53;21.00;;;13.63;;
79204;SDS011;68632;47.512;19.104;2023-06-22T04:53:55;18.90;;;11.23;;
79204;SDS011;68632;47.512;19.104;2023-06-22T04:55:02;22.92;;;12.57;;
79204;SDS011;68632;47.512;19.104;2023-06-22T04:56:05;20.15;;;13.18;;
79204;SDS011;68632;47.512;19.104;2023-06-22T04:57:07;20.83;;;13.73;;
79204;SDS011;68632;47.512;19.104;2023-06-22T04:58:12;17.95;;;13.30;;
79204;SDS011;68632;47.512;19.104;2023-06-22T04:59:14;22.73;;;12.70;;
79204;SDS011;68632;47.512;19.104;2023-06-22T05:00:17;22.48;;;13.55;;
79204;SDS011;68632;47.512;19.104;2023-06-22T05:01:21;19.88;;;12.55;;
79204;SDS011;68632;47.512;19.104;2023-06-22T05:02:24;23.23;;;13.10;;
79204;SDS011;68632;47.512;19.104;2023-06-22T05:03:29;21.33;;;14.23;;
79204;SDS011;68632;47.512;19.104;2023-06-22T05:04:32;27.30;;;13.30;;
79204;SDS011;68632;47.512;19.104;2023-06-22T05:05:35;27.15;;;13.43;;
79204;SDS011;68632;47.512;19.104;2023-06-22T05:06:37;21.90;;;12.77;;
79204;SDS011;68632;47.512;19.104;2023-06-22T05:08:44;26.02;;;12.57;;
79204;SDS011;68632;47.512;19.104;2023-06-22T05:09:47;23.15;;;13.68;;
79204;SDS011;68632;47.512;19.104;2023-06-22T05:10:49;22.77;;;12.65;;
79204;SDS011;68632;47.512;19.104;2023-06-22T05:12:06;23.48;;;11.98;;
79204;SDS011;68632;47.512;19.104;2023-06-22T05:13:12;24.60;;;13.25;;
79204;SDS011;68632;47.512;19.104;2023-06-22T05:14:14;23.20;;;14.45;;
79204;SDS011;68632;47.512;19.104;2023-06-22T05:15:16;21.17;;;12.68;;
79204;SDS011;68632;47.512;19.104;2023-06-22T05:17:26;23.30;;;11.65;;
79204;SDS011;68632;47.512;19.104;2023-06-22T05:18:29;18.67;;;10.85;;
79204;SDS011;68632;47.512;19.104;2023-06-22T05:19:32;19.95;;;11.75;;
79204;SDS011;68632;47.512;19.104;2023-06-22T05:20:36;28.30;;;13.80;;
79204;SDS011;68632;47.512;19.104;2023-06-22T05:21:38;21.67;;;12.07;;
79204;SDS011;68632;47.512;19.104;2023-06-22T05:22:40;43.88;;;11.88;;
79204;SDS011;68632;47.512;19.104;2023-06-22T05:23:45;17.85;;;10.52;;
79204;SDS011;68632;47.512;19.104;2023-06-22T05:24:47;20.52;;;10.30;;
79204;SDS011;68632;47.512;19.104;2023-06-22T05:25:49;19.25;;;10.35;;
79204;SDS011;68632;47.512;19.104;2023-06-22T05:26:51;15.60;;;9.50;;
79204;SDS011;68632;47.512;19.104;2023-06-22T05:27:53;17.48;;;8.88;;
79204;SDS011;68632;47.512;19.104;2023-06-22T05:28:55;20.13;;;9.82;;
79204;SDS011;68632;47.512;19.104;2023-06-22T05:29:58;16.02;;;10.02;;
79204;SDS011;68632;47.512;19.104;2023-06-22T05:31:00;16.92;;;9.88;;
79204;SDS011;68632;47.512;19.104;2023-06-22T05:32:03;17.33;;;9.05;;
79204;SDS011;68632;47.512;19.104;2023-06-22T05:33:05;19.13;;;8.60;;
79204;SDS011;68632;47.512;19.104;2023-06-22T05:34:07;20.27;;;9.00;;
79204;SDS011;68632;47.512;19.104;2023-06-22T05:35:10;19.10;;;10.43;;
79204;SDS011;68632;47.512;19.104;2023-06-22T05:36:12;17.27;;;9.50;;
79204;SDS011;68632;47.512;19.104;2023-06-22T05:37:15;16.40;;;9.57;;
79204;SDS011;68632;47.512;19.104;2023-06-22T05:38:17;15.23;;;8.68;;
79204;SDS011;68632;47.512;19.104;2023-06-22T05:39:19;14.40;;;9.55;;
79204;SDS011;68632;47.512;19.104;2023-06-22T05:40:21;14.43;;;9.18;;
79204;SDS011;68632;47.512;19.104;2023-06-22T05:41:23;16.48;;;8.95;;
79204;SDS011;68632;47.512;19.104;2023-06-22T05:42:26;11.43;;;8.27;;
79204;SDS011;68632;47.512;19.104;2023-06-22T05:43:28;16.50;;;8.25;;
79204;SDS011;68632;47.512;19.104;2023-06-22T05:44:30;19.48;;;7.85;;
79204;SDS011;68632;47.512;19.104;2023-06-22T05:45:32;15.88;;;7.30;;
79204;SDS011;68632;47.512;19.104;2023-06-22T05:46:35;14.00;;;7.50;;
79204;SDS011;68632;47.512;19.104;2023-06-22T05:47:37;17.27;;;8.23;;
79204;SDS011;68632;47.512;19.104;2023-06-22T05:48:39;11.90;;;7.55;;
79204;SDS011;68632;47.512;19.104;2023-06-22T05:49:41;12.63;;;7.25;;
79204;SDS011;68632;47.512;19.104;2023-06-22T05:50:43;13.00;;;8.20;;
79204;SDS011;68632;47.512;19.104;2023-06-22T05:51:46;15.57;;;7.50;;
79204;SDS011;68632;47.512;19.104;2023-06-22T05:52:48;12.40;;;7.13;;
79204;SDS011;68632;47.512;19.104;2023-06-22T05:53:50;9.20;;;6.47;;
79204;SDS011;68632;47.512;19.104;2023-06-22T05:54:52;15.27;;;8.40;;
79204;SDS011;68632;47.512;19.104;2023-06-22T05:55:55;14.98;;;7.78;;
79204;SDS011;68632;47.512;19.104;2023-06-22T05:56:57;10.95;;;7.18;;
79204;SDS011;68632;47.512;19.104;2023-06-22T05:57:59;15.40;;;7.38;;
79204;SDS011;68632;47.512;19.104;2023-06-22T05:59:01;15.45;;;7.35;;
79204;SDS011;68632;47.512;19.104;2023-06-22T06:00:04;17.27;;;7.75;;
79204;SDS011;68632;47.512;19.104;2023-06-22T06:01:12;18.55;;;9.27;;
79204;SDS011;68632;47.512;19.104;2023-06-22T06:02:14;18.40;;;7.80;;
79204;SDS011;68632;47.512;19.104;2023-06-22T06:03:17;15.18;;;8.52;;
79204;SDS011;68632;47.512;19.104;2023-06-22T06:04:19;13.63;;;7.55;;
79204;SDS011;68632;47.512;19.104;2023-06-22T06:05:21;13.98;;;8.15;;
79204;SDS011;68632;47.512;19.104;2023-06-22T06:06:25;18.80;;;7.00;;
79204;SDS011;68632;47.512;19.104;2023-06-22T06:07:30;14.68;;;7.18;;
79204;SDS011;68632;47.512;19.104;2023-06-22T06:08:32;17.40;;;7.85;;
79204;SDS011;68632;47.512;19.104;2023-06-22T06:09:35;16.15;;;7.30;;
79204;SDS011;68632;47.512;19.104;2023-06-22T06:10:37;14.52;;;7.57;;
79204;SDS011;68632;47.512;19.104;2023-06-22T06:11:39;13.30;;;7.78;;
79204;SDS011;68632;47.512;19.104;2023-06-22T06:12:42;14.73;;;7.47;;
79204;SDS011;68632;47.512;19.104;2023-06-22T06:13:44;13.98;;;7.97;;
79204;SDS011;68632;47.512;19.104;2023-06-22T06:14:47;24.45;;;7.22;;
79204;SDS011;68632;47.512;19.104;2023-06-22T06:15:49;17.98;;;7.78;;